Time;durP1;ratioP1;P1;durP2;ratioP2;P2;SDS_P1;SDS_P2;PMS_P1;PMS_P2;Temp;Humidity;BMP_temperature;BMP_pressure;BME280_temperature;BME280_humidity;BME280_pressure;Samples;Min_cycle;Max_cycle;Signal;HPM_P1;HPM_P2
2023/09/07 00:01:19;;;;;;;237.50;94.07;;;;;;;;;;5015361;28;20433;-47
2023/09/07 00:03:45;;;;;;;234.97;90.63;;;;;;;;;;5014934;28;21030;-46
2023/09/07 00:06:11;;;;;;;237.00;92.83;;;;;;;;;;5015333;28;20404;-47
2023/09/07 00:08:37;;;;;;;232.47;87.03;;;;;;;;;;4999305;28;20411;-47
2023/09/07 00:11:04;;;;;;;236.47;90.77;;;;;;;;;;4995636;28;20392;-47
2023/09/07 00:13:30;;;;;;;236.40;93.73;;;;;;;;;;4995011;28;20454;-46
2023/09/07 00:15:58;;;;;;;235.37;91.70;;;;;;;;;;4995518;28;20922;-46
2023/09/07 00:18:24;;;;;;;231.67;87.93;;;;;;;;;;4995588;28;20899;-47
2023/09/07 00:20:50;;;;;;;234.90;91.83;;;;;;;;;;4995559;28;20734;-46
2023/09/07 00:23:16;;;;;;;235.17;89.73;;;;;;;;;;4995069;28;20423;-46
2023/09/07 00:25:42;;;;;;;235.23;90.23;;;;;;;;;;4995343;28;20400;-46
2023/09/07 00:28:08;;;;;;;233.60;90.10;;;;;;;;;;4995701;28;20435;-47
2023/09/07 00:30:34;;;;;;;234.90;90.77;;;;;;;;;;4995218;28;20907;-45
2023/09/07 00:33:00;;;;;;;235.63;91.77;;;;;;;;;;4995032;28;20428;-46
2023/09/07 00:35:26;;;;;;;235.03;90.73;;;;;;;;;;4995163;28;20438;-46
2023/09/07 00:37:52;;;;;;;233.13;92.33;;;;;;;;;;4994151;28;20462;-46
2023/09/07 00:40:18;;;;;;;234.30;90.53;;;;;;;;;;4995068;28;20409;-46
2023/09/07 00:42:44;;;;;;;233.63;87.87;;;;;;;;;;4994826;28;20663;-46
2023/09/07 00:45:10;;;;;;;237.10;91.53;;;;;;;;;;4994837;28;20462;-47
2023/09/07 00:47:36;;;;;;;236.33;92.03;;;;;;;;;;4998435;28;20428;-45
2023/09/07 00:50:03;;;;;;;233.10;88.47;;;;;;;;;;4998646;28;20408;-45
2023/09/07 00:52:29;;;;;;;234.37;89.83;;;;;;;;;;5000822;28;20835;-46
2023/09/07 00:54:55;;;;;;;234.27;87.27;;;;;;;;;;4997564;28;20426;-45
2023/09/07 00:57:21;;;;;;;235.97;92.10;;;;;;;;;;5003987;28;20463;-46
2023/09/07 00:59:47;;;;;;;236.50;93.03;;;;;;;;;;5003354;28;20447;-46
2023/09/07 01:02:13;;;;;;;233.37;87.77;;;;;;;;;;5003055;28;20431;-46
2023/09/07 01:04:39;;;;;;;235.77;89.87;;;;;;;;;;5003017;28;20520;-46
2023/09/07 01:07:28;;;;;;;239.00;93.57;;;;;;;;;;5005400;28;20418;-47
2023/09/07 01:09:58;;;;;;;234.40;89.80;;;;;;;;;;4996355;28;20427;-46
2023/09/07 01:12:24;;;;;;;238.67;93.43;;;;;;;;;;5006669;28;20446;-46
2023/09/07 01:14:50;;;;;;;236.00;91.87;;;;;;;;;;5003147;28;20477;-46
2023/09/07 01:17:16;;;;;;;238.17;92.87;;;;;;;;;;4998967;28;20446;-46
2023/09/07 01:19:42;;;;;;;236.37;92.17;;;;;;;;;;5000690;28;20410;-46
2023/09/07 01:22:12;;;;;;;233.50;87.17;;;;;;;;;;5000161;28;20430;-46
2023/09/07 01:24:38;;;;;;;233.70;87.93;;;;;;;;;;5002074;28;20965;-46
2023/09/07 01:27:05;;;;;;;233.70;87.57;;;;;;;;;;4998880;28;20464;-46
2023/09/07 01:29:31;;;;;;;234.33;88.47;;;;;;;;;;4999507;28;20487;-47
2023/09/07 01:31:58;;;;;;;236.57;95.23;;;;;;;;;;5001000;28;20424;-47
2023/09/07 01:34:24;;;;;;;233.93;92.37;;;;;;;;;;4997146;28;20990;-47
2023/09/07 01:36:50;;;;;;;236.93;92.13;;;;;;;;;;5005357;28;20445;-46
2023/09/07 01:39:16;;;;;;;236.77;93.30;;;;;;;;;;5001839;28;20417;-46
2023/09/07 01:41:43;;;;;;;238.50;95.67;;;;;;;;;;4990736;28;20414;-47
2023/09/07 01:44:09;;;;;;;236.37;90.77;;;;;;;;;;4999012;28;20909;-46
2023/09/07 01:46:37;;;;;;;234.47;92.67;;;;;;;;;;5001818;28;20417;-46
2023/09/07 01:49:03;;;;;;;236.07;92.17;;;;;;;;;;5001212;28;20413;-46
2023/09/07 01:51:29;;;;;;;233.57;86.87;;;;;;;;;;4995106;28;20409;-46
2023/09/07 01:53:55;;;;;;;235.23;90.93;;;;;;;;;;4994774;28;20438;-46
2023/09/07 01:56:21;;;;;;;237.60;95.10;;;;;;;;;;5003925;28;20506;-46
2023/09/07 01:58:47;;;;;;;232.67;88.03;;;;;;;;;;5000924;28;20525;-46
2023/09/07 02:01:22;;;;;;;234.13;89.80;;;;;;;;;;5001423;28;20488;-46
2023/09/07 02:03:48;;;;;;;234.07;88.93;;;;;;;;;;5001251;28;20960;-46
2023/09/07 02:06:14;;;;;;;238.53;94.70;;;;;;;;;;4999636;28;20775;-46
2023/09/07 02:08:40;;;;;;;238.57;92.20;;;;;;;;;;4994819;28;20408;-46
2023/09/07 02:11:06;;;;;;;237.40;94.23;;;;;;;;;;4991736;28;20449;-46
2023/09/07 02:13:32;;;;;;;235.50;91.13;;;;;;;;;;4994392;28;20428;-46
2023/09/07 02:15:58;;;;;;;235.83;91.43;;;;;;;;;;4994212;28;20797;-46
2023/09/07 02:18:24;;;;;;;234.83;92.13;;;;;;;;;;5001485;28;20449;-46
2023/09/07 02:20:50;;;;;;;238.23;92.60;;;;;;;;;;5003357;28;20409;-46
2023/09/07 02:23:16;;;;;;;233.57;86.57;;;;;;;;;;5002213;28;20477;-45
2023/09/07 02:25:43;;;;;;;236.73;90.43;;;;;;;;;;5002706;28;20412;-46
2023/09/07 02:28:09;;;;;;;236.03;89.17;;;;;;;;;;5002876;28;20404;-46
2023/09/07 02:30:34;;;;;;;236.03;93.63;;;;;;;;;;4997028;28;20909;-47
2023/09/07 02:33:00;;;;;;;233.30;86.60;;;;;;;;;;5004105;28;20436;-46
2023/09/07 02:35:26;;;;;;;232.63;86.30;;;;;;;;;;5001101;28;20446;-46
2023/09/07 02:37:52;;;;;;;232.90;87.47;;;;;;;;;;5001286;28;20432;-46
2023/09/07 02:40:18;;;;;;;232.50;86.27;;;;;;;;;;5001462;28;20420;-46
2023/09/07 02:42:44;;;;;;;234.43;86.93;;;;;;;;;;4994452;28;20520;-46
2023/09/07 02:45:13;;;;;;;234.53;87.77;;;;;;;;;;5001114;28;20463;-46
2023/09/07 02:47:40;;;;;;;232.33;86.47;;;;;;;;;;4995908;28;20951;-47
2023/09/07 02:50:06;;;;;;;235.27;88.00;;;;;;;;;;4992825;28;20409;-46
2023/09/07 02:52:32;;;;;;;234.80;85.90;;;;;;;;;;5003728;28;20873;-46
2023/09/07 02:54:58;;;;;;;231.30;86.10;;;;;;;;;;4998735;28;20455;-46
2023/09/07 02:57:24;;;;;;;234.57;88.20;;;;;;;;;;5000785;28;20441;-47
2023/09/07 02:59:49;;;;;;;233.47;87.57;;;;;;;;;;5000681;28;20408;-46
2023/09/07 03:02:15;;;;;;;234.67;88.50;;;;;;;;;;5000993;28;21008;-46
2023/09/07 03:04:41;;;;;;;235.17;87.97;;;;;;;;;;5003846;28;20995;-46
2023/09/07 03:07:07;;;;;;;234.83;87.13;;;;;;;;;;5004186;28;20408;-46
2023/09/07 03:09:35;;;;;;;232.57;85.43;;;;;;;;;;4998256;28;20924;-46
2023/09/07 03:12:00;;;;;;;233.50;86.63;;;;;;;;;;4996254;28;20463;-46
2023/09/07 03:14:26;;;;;;;235.40;89.17;;;;;;;;;;5003201;28;20426;-46
2023/09/07 03:16:54;;;;;;;233.00;86.27;;;;;;;;;;5002663;28;20404;-46
2023/09/07 03:19:20;;;;;;;233.37;85.63;;;;;;;;;;5002201;28;20464;-46
2023/09/07 03:21:46;;;;;;;237.97;91.47;;;;;;;;;;5001554;28;20675;-46
2023/09/07 03:24:12;;;;;;;234.77;87.10;;;;;;;;;;5002092;28;20470;-46
2023/09/07 03:26:38;;;;;;;233.53;86.60;;;;;;;;;;4996884;28;20403;-46
2023/09/07 03:29:04;;;;;;;231.73;85.53;;;;;;;;;;4994545;28;20407;-47
2023/09/07 03:31:30;;;;;;;233.97;86.03;;;;;;;;;;4997130;28;20488;-46
2023/09/07 03:33:55;;;;;;;233.60;87.33;;;;;;;;;;4996826;28;20442;-46
2023/09/07 03:36:21;;;;;;;235.57;87.93;;;;;;;;;;4998743;28;20419;-47
2023/09/07 03:38:47;;;;;;;233.50;84.80;;;;;;;;;;4992204;28;20514;-46
2023/09/07 03:41:13;;;;;;;232.67;86.50;;;;;;;;;;4979489;28;20492;-46
2023/09/07 03:43:39;;;;;;;233.77;87.03;;;;;;;;;;4995071;28;20459;-46
2023/09/07 03:46:06;;;;;;;233.30;86.03;;;;;;;;;;4992537;28;20397;-47
2023/09/07 03:48:32;;;;;;;234.07;85.57;;;;;;;;;;4995306;28;20416;-45
2023/09/07 03:50:58;;;;;;;234.67;89.43;;;;;;;;;;4995057;28;20419;-46
2023/09/07 03:53:25;;;;;;;234.13;87.47;;;;;;;;;;4996765;28;20458;-46
2023/09/07 03:55:51;;;;;;;232.63;87.27;;;;;;;;;;4992915;28;20678;-47
2023/09/07 03:58:16;;;;;;;236.67;93.60;;;;;;;;;;5002173;28;20966;-46
2023/09/07 04:00:42;;;;;;;234.40;88.03;;;;;;;;;;5004104;28;20803;-45
2023/09/07 04:03:09;;;;;;;234.90;87.43;;;;;;;;;;5003115;28;20424;-46
2023/09/07 04:05:38;;;;;;;234.00;87.07;;;;;;;;;;4997844;28;20412;-46
2023/09/07 04:08:04;;;;;;;233.93;87.63;;;;;;;;;;4995931;28;20423;-47
2023/09/07 04:10:30;;;;;;;234.13;87.27;;;;;;;;;;4998705;28;20488;-47
2023/09/07 04:12:56;;;;;;;233.33;88.53;;;;;;;;;;5001210;28;20428;-47
2023/09/07 04:15:22;;;;;;;235.13;89.00;;;;;;;;;;5005689;28;20935;-46
2023/09/07 04:17:48;;;;;;;235.17;87.13;;;;;;;;;;5004669;28;20495;-45
2023/09/07 04:20:14;;;;;;;230.40;82.00;;;;;;;;;;5013018;28;20403;-46
2023/09/07 04:22:43;;;;;;;232.97;84.47;;;;;;;;;;5014781;28;20456;-46
2023/09/07 04:25:09;;;;;;;232.67;85.97;;;;;;;;;;5014934;28;20454;-46
2023/09/07 04:27:35;;;;;;;234.10;86.17;;;;;;;;;;5014994;28;20875;-46
2023/09/07 04:30:01;;;;;;;231.23;83.90;;;;;;;;;;5014864;28;20475;-46
2023/09/07 04:32:26;;;;;;;232.30;85.47;;;;;;;;;;5014522;28;20443;-46
2023/09/07 04:34:56;;;;;;;232.27;84.43;;;;;;;;;;5014764;28;20415;-47
2023/09/07 04:37:22;;;;;;;233.43;85.57;;;;;;;;;;5014834;28;20411;-46
2023/09/07 04:39:51;;;;;;;235.00;87.30;;;;;;;;;;5015177;28;20415;-45
2023/09/07 04:42:17;;;;;;;235.20;90.10;;;;;;;;;;5014488;28;20867;-47
2023/09/07 04:44:43;;;;;;;234.93;89.07;;;;;;;;;;5014429;28;21012;-46
2023/09/07 04:47:09;;;;;;;231.17;85.30;;;;;;;;;;5014842;28;20979;-45
2023/09/07 04:49:35;;;;;;;232.63;86.23;;;;;;;;;;5014536;28;20773;-46
2023/09/07 04:52:01;;;;;;;233.57;87.67;;;;;;;;;;5014282;28;20426;-46
2023/09/07 04:54:27;;;;;;;235.73;90.27;;;;;;;;;;5014470;28;20843;-45
2023/09/07 04:56:53;;;;;;;235.13;87.47;;;;;;;;;;5014516;28;20824;-45
2023/09/07 04:59:19;;;;;;;233.97;86.33;;;;;;;;;;5014360;28;20404;-45
2023/09/07 05:01:45;;;;;;;238.97;88.47;;;;;;;;;;5014171;28;20410;-46
2023/09/07 05:04:11;;;;;;;234.67;86.43;;;;;;;;;;5014114;28;20453;-46
2023/09/07 05:06:40;;;;;;;233.60;84.87;;;;;;;;;;5014220;28;20395;-46
2023/09/07 05:09:06;;;;;;;233.90;85.90;;;;;;;;;;4975414;28;20798;-47
2023/09/07 05:11:34;;;;;;;234.97;85.93;;;;;;;;;;4974877;28;20408;-46
2023/09/07 05:14:00;;;;;;;233.33;85.90;;;;;;;;;;4974821;28;20431;-46
2023/09/07 05:16:26;;;;;;;230.17;80.90;;;;;;;;;;4975056;28;20481;-46
2023/09/07 05:18:52;;;;;;;232.97;83.23;;;;;;;;;;4975250;28;20821;-46
2023/09/07 05:21:18;;;;;;;235.60;87.50;;;;;;;;;;4974979;28;20438;-46
2023/09/07 05:23:44;;;;;;;232.27;82.23;;;;;;;;;;4974297;28;20479;-46
2023/09/07 05:26:10;;;;;;;234.60;86.73;;;;;;;;;;4974680;28;20405;-46
2023/09/07 05:28:36;;;;;;;233.67;86.67;;;;;;;;;;4974685;28;20901;-46
2023/09/07 05:31:02;;;;;;;233.23;84.53;;;;;;;;;;4974796;28;20408;-47
2023/09/07 05:33:28;;;;;;;231.70;82.57;;;;;;;;;;4974407;28;20763;-46
2023/09/07 05:35:54;;;;;;;233.83;86.57;;;;;;;;;;4975080;28;20400;-46
2023/09/07 05:38:20;;;;;;;233.73;85.17;;;;;;;;;;4974756;28;20415;-47
2023/09/07 05:40:50;;;;;;;233.77;87.17;;;;;;;;;;4974721;28;20487;-47
2023/09/07 05:43:16;;;;;;;236.07;89.03;;;;;;;;;;4974177;28;20468;-46
2023/09/07 05:45:42;;;;;;;236.63;91.73;;;;;;;;;;4975192;28;20396;-45
2023/09/07 05:48:08;;;;;;;238.57;93.67;;;;;;;;;;4974471;28;20401;-45
2023/09/07 05:50:35;;;;;;;236.87;88.23;;;;;;;;;;4974405;28;20898;-46
2023/09/07 05:53:01;;;;;;;235.97;90.83;;;;;;;;;;4974177;28;20424;-47
2023/09/07 05:55:27;;;;;;;236.93;90.57;;;;;;;;;;4974320;28;20421;-45
2023/09/07 05:57:55;;;;;;;235.87;88.43;;;;;;;;;;4974211;28;20408;-45
2023/09/07 06:00:21;;;;;;;245.73;97.03;;;;;;;;;;4974652;28;20394;-47
2023/09/07 06:02:47;;;;;;;237.20;91.57;;;;;;;;;;4988044;28;20440;-45
2023/09/07 06:05:13;;;;;;;236.93;88.17;;;;;;;;;;4993490;28;20488;-46
2023/09/07 06:07:39;;;;;;;236.17;89.77;;;;;;;;;;4994008;28;20403;-46
2023/09/07 06:10:05;;;;;;;236.37;88.03;;;;;;;;;;4993510;28;20408;-48
2023/09/07 06:12:31;;;;;;;234.70;85.77;;;;;;;;;;4993141;28;20433;-46
2023/09/07 06:14:57;;;;;;;235.20;87.13;;;;;;;;;;4993415;28;20428;-46
2023/09/07 06:17:23;;;;;;;236.40;88.83;;;;;;;;;;4993422;28;20463;-48
2023/09/07 06:19:49;;;;;;;234.70;87.37;;;;;;;;;;4993350;28;20415;-45
2023/09/07 06:22:15;;;;;;;237.57;91.17;;;;;;;;;;4993430;28;20443;-45
2023/09/07 06:24:41;;;;;;;237.77;90.30;;;;;;;;;;4993043;28;20452;-46
2023/09/07 06:27:07;;;;;;;234.63;86.60;;;;;;;;;;4993509;28;20402;-46
2023/09/07 06:29:33;;;;;;;235.33;88.47;;;;;;;;;;4993677;28;20940;-47
2023/09/07 06:31:59;;;;;;;238.07;91.87;;;;;;;;;;4992873;28;20945;-46
2023/09/07 06:34:26;;;;;;;236.87;89.13;;;;;;;;;;4993135;28;20769;-47
2023/09/07 06:36:51;;;;;;;235.17;87.57;;;;;;;;;;4992132;28;20397;-46
2023/09/07 06:39:17;;;;;;;235.27;88.07;;;;;;;;;;4992951;28;20404;-47
2023/09/07 06:41:46;;;;;;;239.07;92.93;;;;;;;;;;4992615;28;20413;-47
2023/09/07 06:44:12;;;;;;;237.80;90.53;;;;;;;;;;4992827;28;20561;-46
2023/09/07 06:46:38;;;;;;;236.10;89.30;;;;;;;;;;4992852;28;20893;-48
2023/09/07 06:49:04;;;;;;;238.47;93.47;;;;;;;;;;4992957;28;20768;-46
2023/09/07 06:51:31;;;;;;;240.40;94.80;;;;;;;;;;4991922;28;20489;-46
2023/09/07 06:53:57;;;;;;;237.67;92.47;;;;;;;;;;5001545;28;20437;-47
2023/09/07 06:56:23;;;;;;;236.17;90.67;;;;;;;;;;5003248;28;20411;-46
2023/09/07 06:58:49;;;;;;;238.10;98.13;;;;;;;;;;5000643;28;20407;-46
2023/09/07 07:01:15;;;;;;;239.13;95.60;;;;;;;;;;4999692;28;20422;-46
2023/09/07 07:03:42;;;;;;;241.30;96.47;;;;;;;;;;5005852;28;20463;-47
2023/09/07 07:06:08;;;;;;;240.00;100.50;;;;;;;;;;5006118;28;20413;-47
2023/09/07 07:08:34;;;;;;;242.67;105.53;;;;;;;;;;5000120;28;20439;-48
2023/09/07 07:11:00;;;;;;;239.27;96.10;;;;;;;;;;4998642;28;20554;-46
2023/09/07 07:13:26;;;;;;;244.10;107.57;;;;;;;;;;4999535;28;20427;-46
2023/09/07 07:15:52;;;;;;;245.47;108.73;;;;;;;;;;5000406;28;20432;-45
2023/09/07 07:18:18;;;;;;;243.23;105.23;;;;;;;;;;4999732;28;20500;-45
2023/09/07 07:20:45;;;;;;;244.43;109.63;;;;;;;;;;4995230;28;20467;-46
2023/09/07 07:23:12;;;;;;;244.73;106.13;;;;;;;;;;4991112;28;20427;-46
2023/09/07 07:25:38;;;;;;;244.23;116.63;;;;;;;;;;4993552;28;20456;-46
2023/09/07 07:28:05;;;;;;;240.87;108.73;;;;;;;;;;4993370;28;20908;-47
2023/09/07 07:30:40;;;;;;;242.03;115.63;;;;;;;;;;5003119;28;20412;-46
2023/09/07 07:33:06;;;;;;;241.03;111.87;;;;;;;;;;5000972;28;20423;-46
2023/09/07 07:35:32;;;;;;;247.87;124.37;;;;;;;;;;5003520;28;20422;-46
2023/09/07 07:37:58;;;;;;;240.63;116.20;;;;;;;;;;5000810;28;20423;-46
2023/09/07 07:40:24;;;;;;;243.63;118.53;;;;;;;;;;5002695;28;20429;-46
2023/09/07 07:42:52;;;;;;;240.47;114.37;;;;;;;;;;4998749;28;20776;-47
2023/09/07 07:45:21;;;;;;;239.47;117.60;;;;;;;;;;4993261;28;21021;-47
2023/09/07 07:47:48;;;;;;;243.93;122.67;;;;;;;;;;5005612;28;20813;-46
2023/09/07 07:50:15;;;;;;;246.63;123.73;;;;;;;;;;5003217;28;20454;-46
2023/09/07 07:52:41;;;;;;;243.53;121.00;;;;;;;;;;5004874;28;20488;-47
2023/09/07 07:55:07;;;;;;;244.67;124.93;;;;;;;;;;5004149;28;20410;-46
2023/09/07 07:57:33;;;;;;;243.13;123.70;;;;;;;;;;5004491;28;20489;-46
2023/09/07 07:59:59;;;;;;;241.90;125.17;;;;;;;;;;5003873;28;20853;-46
2023/09/07 08:02:25;;;;;;;240.40;121.63;;;;;;;;;;5009219;28;20439;-47
2023/09/07 08:04:51;;;;;;;241.57;127.23;;;;;;;;;;5005706;28;20469;-46
2023/09/07 08:07:17;;;;;;;240.17;125.53;;;;;;;;;;5001459;28;20400;-46
2023/09/07 08:09:43;;;;;;;240.00;126.70;;;;;;;;;;5003002;28;20415;-47
2023/09/07 08:12:09;;;;;;;240.67;129.50;;;;;;;;;;5002608;28;20453;-46
2023/09/07 08:14:35;;;;;;;241.63;134.07;;;;;;;;;;5003504;28;20886;-48
2023/09/07 08:17:01;;;;;;;240.00;132.90;;;;;;;;;;5003573;28;21057;-47
2023/09/07 08:19:28;;;;;;;244.03;132.87;;;;;;;;;;5013701;28;20422;-47
2023/09/07 08:21:54;;;;;;;242.37;131.87;;;;;;;;;;5014453;28;20395;-47
2023/09/07 08:24:20;;;;;;;238.63;130.40;;;;;;;;;;5014899;28;20512;-47
2023/09/07 08:26:47;;;;;;;241.60;134.57;;;;;;;;;;5015126;28;20516;-48
2023/09/07 08:29:13;;;;;;;240.13;135.53;;;;;;;;;;5014953;28;20378;-46
2023/09/07 08:31:39;;;;;;;242.20;134.63;;;;;;;;;;5014549;28;20407;-48
2023/09/07 08:34:06;;;;;;;242.37;138.13;;;;;;;;;;5014714;28;20386;-48
2023/09/07 08:36:34;;;;;;;240.60;136.83;;;;;;;;;;5014789;28;20406;-47
2023/09/07 08:39:07;;;;;;;239.93;136.67;;;;;;;;;;5014786;28;20899;-48
2023/09/07 08:41:51;;;;;;;246.73;144.07;;;;;;;;;;5014573;28;20399;-46
2023/09/07 08:44:19;;;;;;;239.40;138.20;;;;;;;;;;5014476;28;20466;-48
2023/09/07 08:46:45;;;;;;;238.80;137.00;;;;;;;;;;5014658;28;20385;-47
2023/09/07 08:49:12;;;;;;;237.30;136.50;;;;;;;;;;5014575;28;20385;-47
2023/09/07 08:51:38;;;;;;;245.40;145.27;;;;;;;;;;5014270;28;20374;-48
2023/09/07 08:54:05;;;;;;;237.93;137.73;;;;;;;;;;5014460;28;20381;-46
2023/09/07 08:56:31;;;;;;;236.37;137.47;;;;;;;;;;5014477;28;20378;-47
2023/09/07 08:58:57;;;;;;;240.60;142.03;;;;;;;;;;5013252;28;20457;-48
2023/09/07 09:01:23;;;;;;;240.43;141.40;;;;;;;;;;5014272;28;20577;-47
2023/09/07 09:03:50;;;;;;;236.93;137.00;;;;;;;;;;5014039;28;20465;-46
2023/09/07 09:06:20;;;;;;;239.50;141.60;;;;;;;;;;5014402;28;20466;-48
2023/09/07 09:08:48;;;;;;;238.47;137.93;;;;;;;;;;4997127;28;20404;-48
2023/09/07 09:11:15;;;;;;;242.87;145.87;;;;;;;;;;4994377;28;20892;-47
2023/09/07 09:13:42;;;;;;;237.57;141.70;;;;;;;;;;4994092;28;20431;-47
2023/09/07 09:16:07;;;;;;;238.33;142.37;;;;;;;;;;4994455;28;20427;-47
2023/09/07 09:18:33;;;;;;;235.33;138.33;;;;;;;;;;4994702;28;20404;-46
2023/09/07 09:20:59;;;;;;;238.97;143.77;;;;;;;;;;4994312;28;20949;-46
2023/09/07 09:23:31;;;;;;;236.37;141.13;;;;;;;;;;4993852;28;20515;-47
2023/09/07 09:25:57;;;;;;;239.47;144.53;;;;;;;;;;4994207;28;20403;-47
2023/09/07 09:28:24;;;;;;;238.93;145.77;;;;;;;;;;4994121;28;20378;-47
2023/09/07 09:30:50;;;;;;;240.43;146.80;;;;;;;;;;4994187;28;20699;-47
2023/09/07 09:33:16;;;;;;;237.50;141.20;;;;;;;;;;4993805;28;20900;-47
2023/09/07 09:35:43;;;;;;;240.50;147.30;;;;;;;;;;4993964;28;20411;-47
2023/09/07 09:38:09;;;;;;;238.77;146.57;;;;;;;;;;4994257;28;20417;-47
2023/09/07 09:40:36;;;;;;;238.73;148.83;;;;;;;;;;4993968;28;20386;-47
2023/09/07 09:43:03;;;;;;;239.43;147.40;;;;;;;;;;4975635;28;20468;-47
2023/09/07 09:45:29;;;;;;;240.47;149.93;;;;;;;;;;4974323;28;20435;-47
2023/09/07 09:47:56;;;;;;;237.10;146.53;;;;;;;;;;4974593;28;20429;-47
2023/09/07 09:50:22;;;;;;;235.70;141.53;;;;;;;;;;4974397;28;20382;-47
2023/09/07 09:52:49;;;;;;;236.03;142.83;;;;;;;;;;4974118;28;20443;-47
2023/09/07 09:55:16;;;;;;;241.80;151.37;;;;;;;;;;4976324;28;20973;-48
2023/09/07 09:57:42;;;;;;;244.30;156.40;;;;;;;;;;4973987;28;21131;-48
2023/09/07 10:00:31;;;;;;;245.87;157.20;;;;;;;;;;4973386;28;20388;-47
2023/09/07 10:03:13;;;;;;;239.43;151.70;;;;;;;;;;4973678;28;20411;-46
2023/09/07 10:05:39;;;;;;;243.30;153.17;;;;;;;;;;4973683;28;20535;-46
2023/09/07 10:08:13;;;;;;;239.90;151.47;;;;;;;;;;4985302;28;20432;-46
2023/09/07 10:10:41;;;;;;;240.03;151.90;;;;;;;;;;4992963;28;20399;-46
2023/09/07 10:13:07;;;;;;;256.23;167.50;;;;;;;;;;4991119;28;20399;-47
2023/09/07 10:15:35;;;;;;;242.13;154.27;;;;;;;;;;4988549;28;20498;-47
2023/09/07 10:18:15;;;;;;;243.90;156.97;;;;;;;;;;4992947;28;20780;-47
2023/09/07 10:20:48;;;;;;;240.00;151.40;;;;;;;;;;4992375;28;20900;-47
2023/09/07 10:23:14;;;;;;;241.30;155.03;;;;;;;;;;4993045;28;20428;-48
2023/09/07 10:25:40;;;;;;;244.57;158.17;;;;;;;;;;4992571;28;20937;-47
2023/09/07 10:28:06;;;;;;;241.27;152.63;;;;;;;;;;4992611;28;20823;-47
2023/09/07 10:30:32;;;;;;;240.57;152.50;;;;;;;;;;4992900;28;20399;-47
2023/09/07 10:32:58;;;;;;;238.80;151.83;;;;;;;;;;4992834;28;20424;-47
2023/09/07 10:35:27;;;;;;;235.47;147.93;;;;;;;;;;4992960;28;20487;-47
2023/09/07 10:37:53;;;;;;;240.73;155.43;;;;;;;;;;4993009;28;20413;-47
2023/09/07 10:40:21;;;;;;;241.13;155.73;;;;;;;;;;4992904;28;20423;-47
2023/09/07 10:42:47;;;;;;;239.37;155.37;;;;;;;;;;4992589;28;20429;-47
2023/09/07 10:45:16;;;;;;;241.30;158.63;;;;;;;;;;4992499;28;20448;-48
2023/09/07 10:47:45;;;;;;;240.90;156.60;;;;;;;;;;4993104;28;20415;-47
2023/09/07 10:50:12;;;;;;;243.17;161.53;;;;;;;;;;4992753;28;20404;-47
2023/09/07 10:52:39;;;;;;;242.70;162.00;;;;;;;;;;4992410;28;20464;-46
2023/09/07 10:55:06;;;;;;;240.07;154.60;;;;;;;;;;4992599;28;20454;-47
2023/09/07 10:57:32;;;;;;;241.73;163.47;;;;;;;;;;4992518;28;20941;-46
2023/09/07 10:59:58;;;;;;;242.87;161.83;;;;;;;;;;4992753;28;20420;-47
2023/09/07 11:02:24;;;;;;;242.77;161.63;;;;;;;;;;4992283;28;20437;-48
2023/09/07 11:04:50;;;;;;;241.60;161.40;;;;;;;;;;4986020;28;21147;-47
2023/09/07 11:07:17;;;;;;;244.23;166.67;;;;;;;;;;4992469;28;20177;-48
2023/09/07 11:09:44;;;;;;;241.57;162.30;;;;;;;;;;4992421;28;20409;-47
2023/09/07 11:12:13;;;;;;;242.20;161.13;;;;;;;;;;4992265;28;20486;-47
2023/09/07 11:14:40;;;;;;;247.40;170.77;;;;;;;;;;4990987;28;20917;-48
2023/09/07 11:17:05;;;;;;;243.17;168.07;;;;;;;;;;4992282;28;20461;-47
2023/09/07 11:19:35;;;;;;;243.10;165.13;;;;;;;;;;4992373;28;20416;-48
2023/09/07 11:22:03;;;;;;;240.57;161.13;;;;;;;;;;4993611;28;20398;-47
2023/09/07 11:24:29;;;;;;;242.47;163.47;;;;;;;;;;4998763;28;20486;-47
2023/09/07 11:26:58;;;;;;;244.07;163.67;;;;;;;;;;4998488;28;20451;-47
2023/09/07 11:29:24;;;;;;;248.73;179.27;;;;;;;;;;4998900;28;20874;-47
2023/09/07 11:31:50;;;;;;;242.70;162.83;;;;;;;;;;4998700;28;20407;-47
2023/09/07 11:34:16;;;;;;;242.57;167.50;;;;;;;;;;4998757;28;20199;-48
2023/09/07 11:36:42;;;;;;;240.73;163.53;;;;;;;;;;4999251;28;20378;-48
2023/09/07 11:39:14;;;;;;;240.83;164.27;;;;;;;;;;4998778;28;20489;-47
2023/09/07 11:41:42;;;;;;;245.77;177.33;;;;;;;;;;4998596;28;20732;-47
2023/09/07 11:44:08;;;;;;;243.43;172.93;;;;;;;;;;4993399;28;20539;-47
2023/09/07 11:46:34;;;;;;;238.40;158.57;;;;;;;;;;4980035;28;20397;-48
2023/09/07 11:49:00;;;;;;;243.23;167.90;;;;;;;;;;4979075;28;20761;-47
2023/09/07 11:51:26;;;;;;;246.27;171.97;;;;;;;;;;4978966;28;20437;-47
2023/09/07 11:53:52;;;;;;;244.40;171.93;;;;;;;;;;4978756;28;20425;-46
2023/09/07 11:56:18;;;;;;;242.77;168.17;;;;;;;;;;4979232;28;20408;-47
2023/09/07 11:58:44;;;;;;;238.23;165.20;;;;;;;;;;4978273;28;20252;-46
2023/09/07 12:01:10;;;;;;;240.60;165.70;;;;;;;;;;4979302;28;20912;-46
2023/09/07 12:03:36;;;;;;;238.80;162.93;;;;;;;;;;4978781;28;20212;-46
2023/09/07 12:06:02;;;;;;;239.17;163.23;;;;;;;;;;4979107;28;20396;-47
2023/09/07 12:08:28;;;;;;;241.70;170.33;;;;;;;;;;4993325;28;20432;-48
2023/09/07 12:10:54;;;;;;;240.87;169.20;;;;;;;;;;4998516;28;20431;-47
2023/09/07 12:13:20;;;;;;;241.00;170.63;;;;;;;;;;4998373;28;20432;-46
2023/09/07 12:15:46;;;;;;;241.37;171.57;;;;;;;;;;4998407;28;20214;-46
2023/09/07 12:18:12;;;;;;;239.77;166.93;;;;;;;;;;4998488;28;20752;-46
2023/09/07 12:20:38;;;;;;;241.07;167.40;;;;;;;;;;4998549;28;20407;-46
2023/09/07 12:23:04;;;;;;;240.63;169.97;;;;;;;;;;4997936;28;20199;-46
2023/09/07 12:25:32;;;;;;;237.87;167.47;;;;;;;;;;4998366;28;20204;-47
2023/09/07 12:27:58;;;;;;;237.67;165.07;;;;;;;;;;4998424;28;20396;-46
2023/09/07 12:30:24;;;;;;;237.37;168.33;;;;;;;;;;4998346;28;20407;-46
2023/09/07 12:32:50;;;;;;;240.77;170.80;;;;;;;;;;4998209;28;20507;-47
2023/09/07 12:35:16;;;;;;;239.30;168.73;;;;;;;;;;4995284;28;20491;-46
2023/09/07 12:37:42;;;;;;;240.83;171.10;;;;;;;;;;4995073;28;20834;-46
2023/09/07 12:40:12;;;;;;;240.40;169.83;;;;;;;;;;4995249;28;20247;-46
2023/09/07 12:42:42;;;;;;;238.80;170.37;;;;;;;;;;4995003;28;20432;-46
2023/09/07 12:45:11;;;;;;;239.63;168.43;;;;;;;;;;4994990;28;20506;-46
2023/09/07 12:47:37;;;;;;;238.80;168.83;;;;;;;;;;4995090;28;20396;-47
2023/09/07 12:50:04;;;;;;;238.83;170.57;;;;;;;;;;4994880;28;20761;-47
2023/09/07 12:52:30;;;;;;;239.80;174.53;;;;;;;;;;4994922;28;20427;-46
2023/09/07 12:54:56;;;;;;;239.70;173.10;;;;;;;;;;4995061;28;20408;-46
2023/09/07 12:57:22;;;;;;;239.13;172.17;;;;;;;;;;4994910;28;20404;-46
2023/09/07 12:59:49;;;;;;;238.13;169.83;;;;;;;;;;4994788;28;20408;-48
2023/09/07 13:02:15;;;;;;;237.83;170.60;;;;;;;;;;4994484;28;20196;-46
2023/09/07 13:04:41;;;;;;;238.87;174.57;;;;;;;;;;4994572;28;20447;-47
2023/09/07 13:07:07;;;;;;;238.87;173.17;;;;;;;;;;4991254;28;20401;-47
2023/09/07 13:09:33;;;;;;;237.77;172.67;;;;;;;;;;4975256;28;20177;-46
2023/09/07 13:11:59;;;;;;;238.07;171.37;;;;;;;;;;4974856;28;20452;-46
2023/09/07 13:14:25;;;;;;;238.67;169.30;;;;;;;;;;4975016;28;20260;-46
2023/09/07 13:16:51;;;;;;;237.23;170.60;;;;;;;;;;4975070;28;20177;-46
2023/09/07 13:19:17;;;;;;;235.57;166.03;;;;;;;;;;4974998;28;20173;-46
2023/09/07 13:21:42;;;;;;;243.20;176.40;;;;;;;;;;4974651;28;20412;-47
2023/09/07 13:24:08;;;;;;;238.20;171.70;;;;;;;;;;4974848;28;20550;-47
2023/09/07 13:26:34;;;;;;;235.77;167.97;;;;;;;;;;4974962;28;20166;-46
2023/09/07 13:29:00;;;;;;;237.00;169.83;;;;;;;;;;4974914;28;20451;-46
2023/09/07 13:31:26;;;;;;;241.40;172.93;;;;;;;;;;4991739;28;20315;-46
2023/09/07 13:33:52;;;;;;;238.93;173.87;;;;;;;;;;5003889;28;20192;-46
2023/09/07 13:36:18;;;;;;;238.53;172.00;;;;;;;;;;4994888;28;20181;-46
2023/09/07 13:38:44;;;;;;;237.80;172.83;;;;;;;;;;5005445;28;20442;-47
2023/09/07 13:41:10;;;;;;;237.57;169.80;;;;;;;;;;4999782;28;20188;-47
2023/09/07 13:43:36;;;;;;;240.97;177.43;;;;;;;;;;5005060;28;20200;-48
2023/09/07 13:46:02;;;;;;;236.40;166.67;;;;;;;;;;5001561;28;20184;-46
2023/09/07 13:48:29;;;;;;;238.43;171.23;;;;;;;;;;5005385;28;20407;-47
2023/09/07 13:50:56;;;;;;;233.83;162.20;;;;;;;;;;4991469;28;20967;-46
2023/09/07 13:53:22;;;;;;;235.93;166.50;;;;;;;;;;5009073;28;20437;-46
2023/09/07 13:55:48;;;;;;;236.90;169.67;;;;;;;;;;4992825;28;20416;-46